SVPL1: Red River at Shreveport Site 2

                                SHEF ID:       SVPL1     Red River at Shreveport Site 2
STATION TYPE:

PRECIP STAGE RIV-FLOW VOLTAGE
in ft cfs volt
Ccp-Rev Ccp-Rev Ccp-Rev Ccp-Rev
(America/Chicago)
07/02 00:00 0.00 21.21 51260 12.83
07/02 01:00 0.00 21.23 51380 12.82
07/02 02:00 0.00 21.19 51140 12.81
07/02 03:00 0.00 21.15 50900 12.80
07/02 04:00 0.00 21.09 50540 12.78
07/02 05:00 0.00 21.09 50540 12.77
07/02 06:00 0.00 21.03 50180 12.77
07/02 07:00 0.00 20.93 49650 12.98
07/02 08:00 0.00 20.95 49750 13.36
07/02 09:00 0.00 20.85 49250 13.07
07/02 10:00 0.00 20.86 49300 13.07
07/02 11:00 0.00 20.84 49200 13.06
07/02 12:00 0.00 20.81 49050 13.07
07/02 13:00 0.00 20.68 48400 13.05
07/02 14:00 0.00 20.68 48400 13.09
07/02 15:00 0.00 20.61 48050 13.07
07/02 16:00 0.00 20.50 47500 13.07
07/02 17:00 0.00 20.46 47300 13.07
07/02 18:00 0.00 20.47 47350 13.07
07/02 19:00 0.00 20.42 47100 12.92
07/02 20:00 0.00 20.37 46850 12.88
07/02 21:00 0.00 20.32 46600 12.86
07/02 22:00 0.00 20.23 46150 12.85
07/02 23:00 0.00 20.32 46600 12.86
Data processed at Fri 03Jul2026 04:24 GMT

NOTICE: If you are parsing this page

Please convert to using our Data API. Starting early 2026 we will be migrating to: https://water.usace.army.mil with modern pages rendered in JavaScript. When this migration completes you will no longer be able to scrape this page! CWMSDataAPI (CDA)

Timeseries IDs (TSIDs)

TSIDs used from left to right in the data table
SHRE.Precip-Inc.Total.1Hour.1Hour.Ccp-Rev
SHRE.Stage.Inst.1Hour.0.Ccp-Rev
SHRE.Flow.Inst.1Hour.0.Ccp-Rev
SHRE.Volt-Battery.Inst.1Hour.0.Ccp-Rev

                            

All information presented herein is the property of the government of the United States of America and may be revised or deleted at any time without prior notice. Dissemination of this information without the expressed written consent of the Public Affairs Office, Tulsa District U.S. Army Corps of Engineers is strictly prohibited. These data are gathered electronically and, as presented, have NOT undergone any form of quality control. These data are NOT guaranteed to be valid or correct.